sensor_id;sensor_type;location;lat;lon;timestamp;temperature;humidity
18297;DHT22;18066;52.106;5.534;2022-09-12T00:00:29;15.50;99.90
18297;DHT22;18066;52.106;5.534;2022-09-12T00:02:57;15.50;99.90
18297;DHT22;18066;52.106;5.534;2022-09-12T00:05:25;15.50;99.90
18297;DHT22;18066;52.106;5.534;2022-09-12T00:07:53;15.40;99.90
18297;DHT22;18066;52.106;5.534;2022-09-12T00:10:20;15.40;99.90
18297;DHT22;18066;52.106;5.534;2022-09-12T00:12:48;15.40;99.90
18297;DHT22;18066;52.106;5.534;2022-09-12T00:15:14;15.30;99.90
18297;DHT22;18066;52.106;5.534;2022-09-12T00:17:41;15.30;99.90
18297;DHT22;18066;52.106;5.534;2022-09-12T00:20:09;15.30;99.90
18297;DHT22;18066;52.106;5.534;2022-09-12T00:22:36;15.30;99.90
18297;DHT22;18066;52.106;5.534;2022-09-12T00:25:04;15.40;99.90
18297;DHT22;18066;52.106;5.534;2022-09-12T00:27:30;15.30;99.90
18297;DHT22;18066;52.106;5.534;2022-09-12T00:29:59;15.20;99.90
18297;DHT22;18066;52.106;5.534;2022-09-12T00:32:25;15.20;99.90
18297;DHT22;18066;52.106;5.534;2022-09-12T00:34:52;15.10;99.90
18297;DHT22;18066;52.106;5.534;2022-09-12T00:37:19;15.00;99.90
18297;DHT22;18066;52.106;5.534;2022-09-12T00:39:45;14.90;99.90
18297;DHT22;18066;52.106;5.534;2022-09-12T00:42:12;15.00;99.90
18297;DHT22;18066;52.106;5.534;2022-09-12T00:44:48;15.00;99.90
18297;DHT22;18066;52.106;5.534;2022-09-12T00:47:20;14.90;99.90
18297;DHT22;18066;52.106;5.534;2022-09-12T00:49:51;15.00;99.90
18297;DHT22;18066;52.106;5.534;2022-09-12T00:52:21;15.00;99.90
18297;DHT22;18066;52.106;5.534;2022-09-12T00:54:52;15.00;99.90
18297;DHT22;18066;52.106;5.534;2022-09-12T00:57:20;15.00;99.90
18297;DHT22;18066;52.106;5.534;2022-09-12T00:59:50;15.10;99.90
18297;DHT22;18066;52.106;5.534;2022-09-12T01:02:20;15.10;99.90
18297;DHT22;18066;52.106;5.534;2022-09-12T01:04:47;15.00;99.90
18297;DHT22;18066;52.106;5.534;2022-09-12T01:07:14;15.10;99.90
18297;DHT22;18066;52.106;5.534;2022-09-12T01:09:43;15.10;99.90
18297;DHT22;18066;52.106;5.534;2022-09-12T01:12:11;15.10;99.90
18297;DHT22;18066;52.106;5.534;2022-09-12T01:14:39;15.10;99.90
18297;DHT22;18066;52.106;5.534;2022-09-12T01:17:05;15.10;99.90
18297;DHT22;18066;52.106;5.534;2022-09-12T01:25:45;15.00;99.90
18297;DHT22;18066;52.106;5.534;2022-09-12T01:28:33;14.90;99.90
18297;DHT22;18066;52.106;5.534;2022-09-12T01:31:07;14.90;99.90
18297;DHT22;18066;52.106;5.534;2022-09-12T01:33:59;14.90;99.90
18297;DHT22;18066;52.106;5.534;2022-09-12T01:36:35;14.80;99.90
18297;DHT22;18066;52.106;5.534;2022-09-12T01:39:04;14.80;99.90
18297;DHT22;18066;52.106;5.534;2022-09-12T01:41:39;14.80;99.90
18297;DHT22;18066;52.106;5.534;2022-09-12T01:44:12;14.80;99.90
18297;DHT22;18066;52.106;5.534;2022-09-12T01:46:45;14.80;99.90
18297;DHT22;18066;52.106;5.534;2022-09-12T01:49:18;14.90;99.90
18297;DHT22;18066;52.106;5.534;2022-09-12T01:51:54;14.80;99.90
18297;DHT22;18066;52.106;5.534;2022-09-12T01:54:25;14.80;99.90
18297;DHT22;18066;52.106;5.534;2022-09-12T01:56:57;14.70;99.90
18297;DHT22;18066;52.106;5.534;2022-09-12T01:59:29;14.80;99.90
18297;DHT22;18066;52.106;5.534;2022-09-12T02:02:01;14.70;99.90
18297;DHT22;18066;52.106;5.534;2022-09-12T02:04:33;14.70;99.90
18297;DHT22;18066;52.106;5.534;2022-09-12T02:07:07;14.80;99.90
18297;DHT22;18066;52.106;5.534;2022-09-12T02:09:39;14.80;99.90
18297;DHT22;18066;52.106;5.534;2022-09-12T02:12:08;14.60;99.90
18297;DHT22;18066;52.106;5.534;2022-09-12T02:14:39;14.60;99.90
18297;DHT22;18066;52.106;5.534;2022-09-12T02:17:11;14.60;99.90
18297;DHT22;18066;52.106;5.534;2022-09-12T02:19:41;14.60;99.90
18297;DHT22;18066;52.106;5.534;2022-09-12T02:22:12;14.60;99.90
18297;DHT22;18066;52.106;5.534;2022-09-12T02:24:44;14.60;99.90
18297;DHT22;18066;52.106;5.534;2022-09-12T02:27:14;14.60;99.90
18297;DHT22;18066;52.106;5.534;2022-09-12T02:29:42;14.60;99.90
18297;DHT22;18066;52.106;5.534;2022-09-12T02:32:16;14.60;99.90
18297;DHT22;18066;52.106;5.534;2022-09-12T02:34:51;14.50;99.90
18297;DHT22;18066;52.106;5.534;2022-09-12T02:37:24;14.50;99.90
18297;DHT22;18066;52.106;5.534;2022-09-12T02:42:47;14.50;99.90
18297;DHT22;18066;52.106;5.534;2022-09-12T02:49:18;14.50;99.90
18297;DHT22;18066;52.106;5.534;2022-09-12T02:52:44;14.50;99.90
18297;DHT22;18066;52.106;5.534;2022-09-12T02:56:11;14.50;99.90
18297;DHT22;18066;52.106;5.534;2022-09-12T03:22:35;14.40;99.90
18297;DHT22;18066;52.106;5.534;2022-09-12T03:33:19;14.30;99.90
18297;DHT22;18066;52.106;5.534;2022-09-12T03:43:12;14.20;99.90
18297;DHT22;18066;52.106;5.534;2022-09-12T03:46:33;14.40;99.90
18297;DHT22;18066;52.106;5.534;2022-09-12T03:52:59;14.40;99.90
18297;DHT22;18066;52.106;5.534;2022-09-12T04:13:31;14.00;99.90
18297;DHT22;18066;52.106;5.534;2022-09-12T04:19:52;14.00;99.90
18297;DHT22;18066;52.106;5.534;2022-09-12T04:32:43;14.10;99.90
18297;DHT22;18066;52.106;5.534;2022-09-12T05:24:39;14.50;99.90
18297;DHT22;18066;52.106;5.534;2022-09-12T05:27:07;14.50;99.90
18297;DHT22;18066;52.106;5.534;2022-09-12T05:29:34;14.60;99.90
18297;DHT22;18066;52.106;5.534;2022-09-12T05:32:01;14.70;99.90
18297;DHT22;18066;52.106;5.534;2022-09-12T05:34:28;14.60;99.90
18297;DHT22;18066;52.106;5.534;2022-09-12T05:36:55;14.70;99.90
18297;DHT22;18066;52.106;5.534;2022-09-12T05:39:21;14.70;99.90
18297;DHT22;18066;52.106;5.534;2022-09-12T05:41:50;14.70;99.90
18297;DHT22;18066;52.106;5.534;2022-09-12T05:44:17;14.70;99.90
18297;DHT22;18066;52.106;5.534;2022-09-12T05:46:44;14.60;99.90
18297;DHT22;18066;52.106;5.534;2022-09-12T05:49:13;14.70;99.90
18297;DHT22;18066;52.106;5.534;2022-09-12T05:51:42;14.70;99.90
18297;DHT22;18066;52.106;5.534;2022-09-12T05:54:10;14.70;99.90
18297;DHT22;18066;52.106;5.534;2022-09-12T05:56:39;14.80;99.90
18297;DHT22;18066;52.106;5.534;2022-09-12T05:59:11;14.80;99.90
18297;DHT22;18066;52.106;5.534;2022-09-12T06:01:38;14.90;99.90
18297;DHT22;18066;52.106;5.534;2022-09-12T06:04:05;14.80;99.90
18297;DHT22;18066;52.106;5.534;2022-09-12T06:06:35;14.80;99.90
18297;DHT22;18066;52.106;5.534;2022-09-12T06:09:03;14.80;99.90
18297;DHT22;18066;52.106;5.534;2022-09-12T06:11:32;14.90;99.90
18297;DHT22;18066;52.106;5.534;2022-09-12T06:13:59;14.80;99.90
18297;DHT22;18066;52.106;5.534;2022-09-12T06:16:30;14.80;99.90
18297;DHT22;18066;52.106;5.534;2022-09-12T06:18:58;14.90;99.90
18297;DHT22;18066;52.106;5.534;2022-09-12T06:21:26;14.90;99.90
18297;DHT22;18066;52.106;5.534;2022-09-12T06:23:53;14.90;99.90
18297;DHT22;18066;52.106;5.534;2022-09-12T06:26:21;15.00;99.90
18297;DHT22;18066;52.106;5.534;2022-09-12T06:28:53;15.00;99.90
18297;DHT22;18066;52.106;5.534;2022-09-12T06:31:22;15.00;99.90
18297;DHT22;18066;52.106;5.534;2022-09-12T06:33:52;15.00;99.90
18297;DHT22;18066;52.106;5.534;2022-09-12T06:36:23;15.00;99.90
18297;DHT22;18066;52.106;5.534;2022-09-12T06:38:53;15.00;99.90
18297;DHT22;18066;52.106;5.534;2022-09-12T06:41:20;15.00;99.90
18297;DHT22;18066;52.106;5.534;2022-09-12T06:43:47;15.10;99.90
18297;DHT22;18066;52.106;5.534;2022-09-12T06:46:14;15.10;99.90
18297;DHT22;18066;52.106;5.534;2022-09-12T06:48:41;15.20;99.90
18297;DHT22;18066;52.106;5.534;2022-09-12T06:51:11;15.30;99.90
18297;DHT22;18066;52.106;5.534;2022-09-12T06:53:39;15.40;99.90
18297;DHT22;18066;52.106;5.534;2022-09-12T06:56:08;15.50;99.90
18297;DHT22;18066;52.106;5.534;2022-09-12T06:58:36;15.50;99.90
18297;DHT22;18066;52.106;5.534;2022-09-12T07:01:05;15.60;99.90
18297;DHT22;18066;52.106;5.534;2022-09-12T07:03:32;15.60;99.90
18297;DHT22;18066;52.106;5.534;2022-09-12T07:06:02;15.60;99.90
18297;DHT22;18066;52.106;5.534;2022-09-12T07:08:32;15.70;99.90
18297;DHT22;18066;52.106;5.534;2022-09-12T07:11:03;15.80;99.90
18297;DHT22;18066;52.106;5.534;2022-09-12T07:13:33;15.80;99.90
18297;DHT22;18066;52.106;5.534;2022-09-12T07:16:00;15.90;99.90
18297;DHT22;18066;52.106;5.534;2022-09-12T07:18:27;16.10;99.90
18297;DHT22;18066;52.106;5.534;2022-09-12T07:20:55;16.20;99.90
18297;DHT22;18066;52.106;5.534;2022-09-12T07:23:22;16.30;99.90
18297;DHT22;18066;52.106;5.534;2022-09-12T07:25:52;16.40;99.90
18297;DHT22;18066;52.106;5.534;2022-09-12T07:28:21;16.50;99.90
18297;DHT22;18066;52.106;5.534;2022-09-12T07:30:49;16.60;99.90
18297;DHT22;18066;52.106;5.534;2022-09-12T07:33:15;16.70;99.90
18297;DHT22;18066;52.106;5.534;2022-09-12T07:35:43;16.80;99.90
18297;DHT22;18066;52.106;5.534;2022-09-12T07:38:09;16.90;99.90
18297;DHT22;18066;52.106;5.534;2022-09-12T07:40:36;16.90;99.90
18297;DHT22;18066;52.106;5.534;2022-09-12T07:43:04;17.00;99.90
18297;DHT22;18066;52.106;5.534;2022-09-12T07:45:31;17.10;99.90
18297;DHT22;18066;52.106;5.534;2022-09-12T07:47:57;17.30;99.90
18297;DHT22;18066;52.106;5.534;2022-09-12T07:50:25;17.40;99.90
18297;DHT22;18066;52.106;5.534;2022-09-12T13:19:52;23.80;99.90
18297;DHT22;18066;52.106;5.534;2022-09-12T13:22:21;23.80;99.90
18297;DHT22;18066;52.106;5.534;2022-09-12T13:24:49;23.90;99.90
18297;DHT22;18066;52.106;5.534;2022-09-12T13:27:19;23.90;99.90
18297;DHT22;18066;52.106;5.534;2022-09-12T13:29:45;23.90;99.90
18297;DHT22;18066;52.106;5.534;2022-09-12T13:32:13;24.00;99.90
18297;DHT22;18066;52.106;5.534;2022-09-12T13:34:55;24.10;99.90
18297;DHT22;18066;52.106;5.534;2022-09-12T13:37:44;24.20;99.90
18297;DHT22;18066;52.106;5.534;2022-09-12T13:40:27;24.30;99.90
18297;DHT22;18066;52.106;5.534;2022-09-12T13:43:08;24.30;99.90
18297;DHT22;18066;52.106;5.534;2022-09-12T13:45:37;24.40;99.90
18297;DHT22;18066;52.106;5.534;2022-09-12T13:48:06;24.40;99.90
18297;DHT22;18066;52.106;5.534;2022-09-12T13:50:40;24.40;99.90
18297;DHT22;18066;52.106;5.534;2022-09-12T13:53:13;24.30;99.90
18297;DHT22;18066;52.106;5.534;2022-09-12T13:55:44;24.20;99.90
18297;DHT22;18066;52.106;5.534;2022-09-12T13:58:20;24.20;99.90
18297;DHT22;18066;52.106;5.534;2022-09-12T14:00:59;24.30;99.90
18297;DHT22;18066;52.106;5.534;2022-09-12T14:03:29;24.40;99.90
18297;DHT22;18066;52.106;5.534;2022-09-12T14:06:15;24.30;99.90
18297;DHT22;18066;52.106;5.534;2022-09-12T14:08:44;24.40;99.90
18297;DHT22;18066;52.106;5.534;2022-09-12T14:11:20;24.40;99.90
18297;DHT22;18066;52.106;5.534;2022-09-12T14:13:48;24.40;99.90
18297;DHT22;18066;52.106;5.534;2022-09-12T14:16:16;24.40;99.90
18297;DHT22;18066;52.106;5.534;2022-09-12T14:18:46;24.50;99.90
18297;DHT22;18066;52.106;5.534;2022-09-12T14:21:30;24.50;99.90
18297;DHT22;18066;52.106;5.534;2022-09-12T14:23:59;24.60;99.90
18297;DHT22;18066;52.106;5.534;2022-09-12T14:26:26;24.60;99.90
18297;DHT22;18066;52.106;5.534;2022-09-12T14:28:55;24.70;99.90
18297;DHT22;18066;52.106;5.534;2022-09-12T14:31:28;24.70;99.90
18297;DHT22;18066;52.106;5.534;2022-09-12T14:34:06;24.70;99.90
18297;DHT22;18066;52.106;5.534;2022-09-12T14:36:38;24.70;99.90
18297;DHT22;18066;52.106;5.534;2022-09-12T14:39:14;24.70;99.90
18297;DHT22;18066;52.106;5.534;2022-09-12T14:41:41;24.70;99.90
18297;DHT22;18066;52.106;5.534;2022-09-12T14:44:15;24.80;99.90
18297;DHT22;18066;52.106;5.534;2022-09-12T14:46:43;24.90;99.90
18297;DHT22;18066;52.106;5.534;2022-09-12T14:49:15;25.00;99.90
18297;DHT22;18066;52.106;5.534;2022-09-12T14:51:51;25.20;99.90
18297;DHT22;18066;52.106;5.534;2022-09-12T14:54:36;25.60;99.90
18297;DHT22;18066;52.106;5.534;2022-09-12T14:57:05;25.90;99.90
18297;DHT22;18066;52.106;5.534;2022-09-12T14:59:37;26.60;99.90
18297;DHT22;18066;52.106;5.534;2022-09-12T15:02:20;27.30;99.90
18297;DHT22;18066;52.106;5.534;2022-09-12T15:04:48;27.90;99.90
18297;DHT22;18066;52.106;5.534;2022-09-12T15:07:23;27.60;99.90
18297;DHT22;18066;52.106;5.534;2022-09-12T15:09:51;27.20;99.90
18297;DHT22;18066;52.106;5.534;2022-09-12T15:12:18;27.20;99.90
18297;DHT22;18066;52.106;5.534;2022-09-12T15:14:45;27.30;99.90
18297;DHT22;18066;52.106;5.534;2022-09-12T15:17:12;27.20;99.90
18297;DHT22;18066;52.106;5.534;2022-09-12T15:19:38;27.20;99.90
18297;DHT22;18066;52.106;5.534;2022-09-12T15:22:05;27.50;99.90
18297;DHT22;18066;52.106;5.534;2022-09-12T15:24:33;27.90;99.90
18297;DHT22;18066;52.106;5.534;2022-09-12T15:27:00;28.80;99.90
18297;DHT22;18066;52.106;5.534;2022-09-12T15:29:27;28.80;99.90
18297;DHT22;18066;52.106;5.534;2022-09-12T15:31:53;28.50;99.90
18297;DHT22;18066;52.106;5.534;2022-09-12T15:34:20;28.50;99.90
18297;DHT22;18066;52.106;5.534;2022-09-12T15:36:47;28.70;99.90
18297;DHT22;18066;52.106;5.534;2022-09-12T15:39:14;28.10;99.90
18297;DHT22;18066;52.106;5.534;2022-09-12T15:41:42;27.60;99.90
18297;DHT22;18066;52.106;5.534;2022-09-12T15:44:11;27.70;99.90
18297;DHT22;18066;52.106;5.534;2022-09-12T15:46:37;28.40;99.90
18297;DHT22;18066;52.106;5.534;2022-09-12T15:49:04;29.10;99.90
18297;DHT22;18066;52.106;5.534;2022-09-12T15:51:31;29.30;99.90
18297;DHT22;18066;52.106;5.534;2022-09-12T15:53:59;29.10;99.90
18297;DHT22;18066;52.106;5.534;2022-09-12T15:56:27;29.10;99.90
18297;DHT22;18066;52.106;5.534;2022-09-12T15:58:55;28.80;99.90
18297;DHT22;18066;52.106;5.534;2022-09-12T16:01:22;29.10;99.90
18297;DHT22;18066;52.106;5.534;2022-09-12T16:03:49;29.70;99.90
18297;DHT22;18066;52.106;5.534;2022-09-12T16:06:15;30.20;99.90
18297;DHT22;18066;52.106;5.534;2022-09-12T16:08:42;30.50;99.90
18297;DHT22;18066;52.106;5.534;2022-09-12T16:11:13;30.20;99.90
18297;DHT22;18066;52.106;5.534;2022-09-12T16:13:44;29.20;99.90
18297;DHT22;18066;52.106;5.534;2022-09-12T16:16:12;28.20;99.90
18297;DHT22;18066;52.106;5.534;2022-09-12T16:18:38;27.40;99.90
18297;DHT22;18066;52.106;5.534;2022-09-12T16:21:05;26.80;99.90
18297;DHT22;18066;52.106;5.534;2022-09-12T16:23:32;26.40;99.90
18297;DHT22;18066;52.106;5.534;2022-09-12T16:26:00;26.00;99.90
18297;DHT22;18066;52.106;5.534;2022-09-12T16:28:27;25.70;99.90
18297;DHT22;18066;52.106;5.534;2022-09-12T16:30:55;25.30;99.90
18297;DHT22;18066;52.106;5.534;2022-09-12T16:33:23;25.10;99.90
18297;DHT22;18066;52.106;5.534;2022-09-12T16:35:51;24.90;99.90
18297;DHT22;18066;52.106;5.534;2022-09-12T16:38:19;24.70;99.90
18297;DHT22;18066;52.106;5.534;2022-09-12T16:40:46;24.60;99.90
18297;DHT22;18066;52.106;5.534;2022-09-12T16:43:13;24.50;99.90
18297;DHT22;18066;52.106;5.534;2022-09-12T16:45:41;24.40;99.90
18297;DHT22;18066;52.106;5.534;2022-09-12T16:48:08;24.30;99.90
18297;DHT22;18066;52.106;5.534;2022-09-12T16:50:36;24.20;99.90
18297;DHT22;18066;52.106;5.534;2022-09-12T16:53:03;24.20;99.90
18297;DHT22;18066;52.106;5.534;2022-09-12T16:55:30;24.10;99.90
18297;DHT22;18066;52.106;5.534;2022-09-12T16:57:56;24.10;99.90
18297;DHT22;18066;52.106;5.534;2022-09-12T17:00:23;24.10;99.90
18297;DHT22;18066;52.106;5.534;2022-09-12T17:02:50;24.00;99.90
18297;DHT22;18066;52.106;5.534;2022-09-12T17:05:17;23.90;99.90
18297;DHT22;18066;52.106;5.534;2022-09-12T17:07:45;23.80;99.90
18297;DHT22;18066;52.106;5.534;2022-09-12T17:10:12;23.70;99.90
18297;DHT22;18066;52.106;5.534;2022-09-12T17:12:38;23.60;99.90
18297;DHT22;18066;52.106;5.534;2022-09-12T17:15:05;23.40;99.90
18297;DHT22;18066;52.106;5.534;2022-09-12T17:17:32;23.30;99.90
18297;DHT22;18066;52.106;5.534;2022-09-12T17:19:59;23.10;99.90
18297;DHT22;18066;52.106;5.534;2022-09-12T17:22:26;22.90;99.90
18297;DHT22;18066;52.106;5.534;2022-09-12T17:24:54;22.80;99.90
18297;DHT22;18066;52.106;5.534;2022-09-12T17:27:21;22.70;99.90
18297;DHT22;18066;52.106;5.534;2022-09-12T17:29:47;22.60;99.90
18297;DHT22;18066;52.106;5.534;2022-09-12T17:32:14;22.40;99.90
18297;DHT22;18066;52.106;5.534;2022-09-12T17:34:41;22.40;99.90
18297;DHT22;18066;52.106;5.534;2022-09-12T17:37:08;22.30;99.90
18297;DHT22;18066;52.106;5.534;2022-09-12T17:39:35;22.20;99.90
18297;DHT22;18066;52.106;5.534;2022-09-12T17:42:03;22.10;99.90
18297;DHT22;18066;52.106;5.534;2022-09-12T17:44:31;22.00;99.90
18297;DHT22;18066;52.106;5.534;2022-09-12T17:47:00;21.90;99.90
18297;DHT22;18066;52.106;5.534;2022-09-12T17:49:27;21.90;99.90
18297;DHT22;18066;52.106;5.534;2022-09-12T17:51:53;21.80;99.90
18297;DHT22;18066;52.106;5.534;2022-09-12T17:54:20;21.70;99.90
18297;DHT22;18066;52.106;5.534;2022-09-12T17:56:49;21.70;99.90
18297;DHT22;18066;52.106;5.534;2022-09-12T17:59:19;21.70;99.90
18297;DHT22;18066;52.106;5.534;2022-09-12T18:01:48;21.60;99.90
18297;DHT22;18066;52.106;5.534;2022-09-12T18:04:32;21.40;99.90
18297;DHT22;18066;52.106;5.534;2022-09-12T18:06:59;21.30;99.90
18297;DHT22;18066;52.106;5.534;2022-09-12T18:09:26;21.20;99.90
18297;DHT22;18066;52.106;5.534;2022-09-12T18:11:53;21.20;99.90
18297;DHT22;18066;52.106;5.534;2022-09-12T18:14:22;21.10;99.90
18297;DHT22;18066;52.106;5.534;2022-09-12T18:16:49;21.00;99.90
18297;DHT22;18066;52.106;5.534;2022-09-12T18:19:16;21.00;99.90
18297;DHT22;18066;52.106;5.534;2022-09-12T18:21:43;20.90;99.90
18297;DHT22;18066;52.106;5.534;2022-09-12T18:24:11;20.90;99.90
18297;DHT22;18066;52.106;5.534;2022-09-12T18:26:37;20.80;99.90
18297;DHT22;18066;52.106;5.534;2022-09-12T18:29:04;20.70;99.90
18297;DHT22;18066;52.106;5.534;2022-09-12T18:31:33;20.60;99.90
18297;DHT22;18066;52.106;5.534;2022-09-12T18:33:59;20.60;99.90
18297;DHT22;18066;52.106;5.534;2022-09-12T18:36:27;20.50;99.90
18297;DHT22;18066;52.106;5.534;2022-09-12T18:38:55;20.40;99.90
18297;DHT22;18066;52.106;5.534;2022-09-12T18:41:23;20.40;99.90
18297;DHT22;18066;52.106;5.534;2022-09-12T18:43:53;20.50;99.90
18297;DHT22;18066;52.106;5.534;2022-09-12T18:46:20;20.40;99.90
18297;DHT22;18066;52.106;5.534;2022-09-12T18:48:48;20.30;99.90
18297;DHT22;18066;52.106;5.534;2022-09-12T18:51:16;20.20;99.90
18297;DHT22;18066;52.106;5.534;2022-09-12T18:53:47;20.20;99.90
18297;DHT22;18066;52.106;5.534;2022-09-12T18:56:14;20.10;99.90
18297;DHT22;18066;52.106;5.534;2022-09-12T18:58:42;20.10;99.90
18297;DHT22;18066;52.106;5.534;2022-09-12T19:01:10;20.00;99.90
18297;DHT22;18066;52.106;5.534;2022-09-12T19:03:37;20.00;99.90
18297;DHT22;18066;52.106;5.534;2022-09-12T19:06:10;20.00;99.90
18297;DHT22;18066;52.106;5.534;2022-09-12T19:08:37;19.90;99.90
18297;DHT22;18066;52.106;5.534;2022-09-12T19:11:05;19.90;99.90
18297;DHT22;18066;52.106;5.534;2022-09-12T19:13:34;19.90;99.90
18297;DHT22;18066;52.106;5.534;2022-09-12T19:16:02;19.80;99.90
18297;DHT22;18066;52.106;5.534;2022-09-12T19:18:29;19.80;99.90
18297;DHT22;18066;52.106;5.534;2022-09-12T19:20:58;19.70;99.90
18297;DHT22;18066;52.106;5.534;2022-09-12T19:23:27;19.70;99.90
18297;DHT22;18066;52.106;5.534;2022-09-12T19:25:56;19.60;99.90
18297;DHT22;18066;52.106;5.534;2022-09-12T19:28:22;19.60;99.90
18297;DHT22;18066;52.106;5.534;2022-09-12T19:30:49;19.60;99.90
18297;DHT22;18066;52.106;5.534;2022-09-12T19:33:16;19.40;99.90
18297;DHT22;18066;52.106;5.534;2022-09-12T19:35:43;19.40;99.90
18297;DHT22;18066;52.106;5.534;2022-09-12T19:38:10;19.40;99.90
18297;DHT22;18066;52.106;5.534;2022-09-12T19:40:39;19.30;99.90
18297;DHT22;18066;52.106;5.534;2022-09-12T19:43:06;19.30;99.90
18297;DHT22;18066;52.106;5.534;2022-09-12T19:45:33;19.30;99.90
18297;DHT22;18066;52.106;5.534;2022-09-12T19:48:00;19.30;99.90
18297;DHT22;18066;52.106;5.534;2022-09-12T19:50:29;19.30;99.90
18297;DHT22;18066;52.106;5.534;2022-09-12T19:52:56;19.40;99.90
18297;DHT22;18066;52.106;5.534;2022-09-12T19:55:23;19.30;99.90
18297;DHT22;18066;52.106;5.534;2022-09-12T19:57:52;19.40;99.90
18297;DHT22;18066;52.106;5.534;2022-09-12T20:00:19;19.40;99.90
18297;DHT22;18066;52.106;5.534;2022-09-12T20:02:49;19.40;99.90
18297;DHT22;18066;52.106;5.534;2022-09-12T20:05:16;19.40;99.90
18297;DHT22;18066;52.106;5.534;2022-09-12T20:07:42;19.40;99.90
18297;DHT22;18066;52.106;5.534;2022-09-12T20:10:09;19.40;99.90
18297;DHT22;18066;52.106;5.534;2022-09-12T20:12:36;19.50;99.90
18297;DHT22;18066;52.106;5.534;2022-09-12T20:15:05;19.40;99.90
18297;DHT22;18066;52.106;5.534;2022-09-12T20:17:32;19.40;99.90
18297;DHT22;18066;52.106;5.534;2022-09-12T20:19:59;19.40;99.90
18297;DHT22;18066;52.106;5.534;2022-09-12T20:22:26;19.40;99.90
18297;DHT22;18066;52.106;5.534;2022-09-12T20:24:53;19.40;99.90
18297;DHT22;18066;52.106;5.534;2022-09-12T20:27:19;19.40;99.90
18297;DHT22;18066;52.106;5.534;2022-09-12T20:29:46;19.30;99.90
18297;DHT22;18066;52.106;5.534;2022-09-12T20:32:14;19.30;99.90
18297;DHT22;18066;52.106;5.534;2022-09-12T20:34:42;19.30;99.90
18297;DHT22;18066;52.106;5.534;2022-09-12T20:37:09;19.30;99.90
18297;DHT22;18066;52.106;5.534;2022-09-12T20:39:36;19.30;99.90
18297;DHT22;18066;52.106;5.534;2022-09-12T20:42:03;19.20;99.90
18297;DHT22;18066;52.106;5.534;2022-09-12T20:44:30;19.20;99.90
18297;DHT22;18066;52.106;5.534;2022-09-12T20:46:57;19.20;99.90
18297;DHT22;18066;52.106;5.534;2022-09-12T20:49:25;19.10;99.90
18297;DHT22;18066;52.106;5.534;2022-09-12T20:51:51;19.10;99.90
18297;DHT22;18066;52.106;5.534;2022-09-12T20:54:18;19.00;99.90
18297;DHT22;18066;52.106;5.534;2022-09-12T20:56:45;19.00;99.90
18297;DHT22;18066;52.106;5.534;2022-09-12T20:59:12;19.00;99.90
18297;DHT22;18066;52.106;5.534;2022-09-12T21:01:39;19.00;99.90
18297;DHT22;18066;52.106;5.534;2022-09-12T21:04:05;19.00;99.90
18297;DHT22;18066;52.106;5.534;2022-09-12T21:06:33;19.00;99.90
18297;DHT22;18066;52.106;5.534;2022-09-12T21:09:00;19.00;99.90
18297;DHT22;18066;52.106;5.534;2022-09-12T21:11:27;19.10;99.90
18297;DHT22;18066;52.106;5.534;2022-09-12T21:13:54;19.10;99.90
18297;DHT22;18066;52.106;5.534;2022-09-12T21:16:22;19.10;99.90
18297;DHT22;18066;52.106;5.534;2022-09-12T21:18:52;19.10;99.90
18297;DHT22;18066;52.106;5.534;2022-09-12T21:21:19;19.10;99.90
18297;DHT22;18066;52.106;5.534;2022-09-12T21:23:47;19.00;99.90
18297;DHT22;18066;52.106;5.534;2022-09-12T21:26:15;19.10;99.90
18297;DHT22;18066;52.106;5.534;2022-09-12T21:28:42;19.00;99.90
18297;DHT22;18066;52.106;5.534;2022-09-12T21:31:08;19.10;99.90
18297;DHT22;18066;52.106;5.534;2022-09-12T21:33:35;19.00;99.90
18297;DHT22;18066;52.106;5.534;2022-09-12T21:36:03;19.10;99.90
18297;DHT22;18066;52.106;5.534;2022-09-12T21:38:30;19.00;99.90
18297;DHT22;18066;52.106;5.534;2022-09-12T21:41:07;19.00;99.90
18297;DHT22;18066;52.106;5.534;2022-09-12T21:43:35;19.00;99.90
18297;DHT22;18066;52.106;5.534;2022-09-12T21:46:03;19.00;99.90
18297;DHT22;18066;52.106;5.534;2022-09-12T21:48:30;19.00;99.90
18297;DHT22;18066;52.106;5.534;2022-09-12T21:50:58;19.00;99.90
18297;DHT22;18066;52.106;5.534;2022-09-12T21:53:25;19.00;99.90
18297;DHT22;18066;52.106;5.534;2022-09-12T21:55:52;19.00;99.90
18297;DHT22;18066;52.106;5.534;2022-09-12T21:58:20;18.90;99.90
18297;DHT22;18066;52.106;5.534;2022-09-12T22:00:47;19.00;99.90
18297;DHT22;18066;52.106;5.534;2022-09-12T22:03:16;19.00;99.90
18297;DHT22;18066;52.106;5.534;2022-09-12T22:05:43;19.00;99.90
18297;DHT22;18066;52.106;5.534;2022-09-12T22:08:10;19.00;99.90
18297;DHT22;18066;52.106;5.534;2022-09-12T22:10:37;19.00;99.90
18297;DHT22;18066;52.106;5.534;2022-09-12T22:13:04;19.00;99.90
18297;DHT22;18066;52.106;5.534;2022-09-12T22:15:32;19.00;99.90
18297;DHT22;18066;52.106;5.534;2022-09-12T22:17:59;19.00;99.90
18297;DHT22;18066;52.106;5.534;2022-09-12T22:20:26;19.00;99.90
18297;DHT22;18066;52.106;5.534;2022-09-12T22:22:53;19.00;99.90
18297;DHT22;18066;52.106;5.534;2022-09-12T22:25:37;19.10;99.90
18297;DHT22;18066;52.106;5.534;2022-09-12T22:28:04;19.10;99.90
18297;DHT22;18066;52.106;5.534;2022-09-12T22:30:32;19.10;99.90
18297;DHT22;18066;52.106;5.534;2022-09-12T22:32:59;19.10;99.90
18297;DHT22;18066;52.106;5.534;2022-09-12T22:35:26;19.10;99.90
18297;DHT22;18066;52.106;5.534;2022-09-12T22:37:53;19.10;99.90
18297;DHT22;18066;52.106;5.534;2022-09-12T22:40:20;19.10;99.90
18297;DHT22;18066;52.106;5.534;2022-09-12T22:42:46;19.10;99.90
18297;DHT22;18066;52.106;5.534;2022-09-12T22:45:16;19.10;99.90
18297;DHT22;18066;52.106;5.534;2022-09-12T22:47:44;19.10;99.90
18297;DHT22;18066;52.106;5.534;2022-09-12T22:50:11;19.00;99.90
18297;DHT22;18066;52.106;5.534;2022-09-12T22:52:38;19.00;99.90
18297;DHT22;18066;52.106;5.534;2022-09-12T22:55:06;19.00;99.90
18297;DHT22;18066;52.106;5.534;2022-09-12T22:57:33;19.00;99.90
18297;DHT22;18066;52.106;5.534;2022-09-12T23:00:00;19.00;99.90
18297;DHT22;18066;52.106;5.534;2022-09-12T23:02:27;19.00;99.90
18297;DHT22;18066;52.106;5.534;2022-09-12T23:04:55;19.00;99.90
18297;DHT22;18066;52.106;5.534;2022-09-12T23:07:22;19.00;99.90
18297;DHT22;18066;52.106;5.534;2022-09-12T23:09:48;19.00;99.90
18297;DHT22;18066;52.106;5.534;2022-09-12T23:12:15;19.10;99.90
18297;DHT22;18066;52.106;5.534;2022-09-12T23:14:42;19.00;99.90
18297;DHT22;18066;52.106;5.534;2022-09-12T23:17:09;19.00;99.90
18297;DHT22;18066;52.106;5.534;2022-09-12T23:19:35;19.00;99.90
18297;DHT22;18066;52.106;5.534;2022-09-12T23:22:04;19.00;99.90
18297;DHT22;18066;52.106;5.534;2022-09-12T23:24:30;19.00;99.90
18297;DHT22;18066;52.106;5.534;2022-09-12T23:26:57;19.10;99.90